sensor_id;sensor_type;location;lat;lon;timestamp;pressure;altitude;pressure_sealevel;temperature;humidity
68628;BME280;55611;48.602;9.490;2023-03-03T00:01:09;97070;;;6.3;57
68628;BME280;55611;48.602;9.490;2023-03-03T00:03:40;97070;;;6.3;57.5
68628;BME280;55611;48.602;9.490;2023-03-03T00:06:11;97070;;;6.3;57
68628;BME280;55611;48.602;9.490;2023-03-03T00:08:41;97070;;;6.4;57
68628;BME280;55611;48.602;9.490;2023-03-03T00:11:11;97070;;;6.4;57
68628;BME280;55611;48.602;9.490;2023-03-03T00:13:46;97060;;;6.4;57
68628;BME280;55611;48.602;9.490;2023-03-03T00:16:14;97070;;;6.4;57
68628;BME280;55611;48.602;9.490;2023-03-03T00:18:44;97070;;;6.5;57
68628;BME280;55611;48.602;9.490;2023-03-03T00:21:17;97070;;;6.5;57
68628;BME280;55611;48.602;9.490;2023-03-03T00:23:44;97070;;;6.5;57
68628;BME280;55611;48.602;9.490;2023-03-03T00:26:20;97070;;;6.5;57
68628;BME280;55611;48.602;9.490;2023-03-03T00:28:46;97070;;;6.5;57
68628;BME280;55611;48.602;9.490;2023-03-03T00:31:17;97070;;;6.5;57
68628;BME280;55611;48.602;9.490;2023-03-03T00:33:47;97080;;;6.4;57
68628;BME280;55611;48.602;9.490;2023-03-03T00:36:48;97070;;;6.3;57
68628;BME280;55611;48.602;9.490;2023-03-03T00:38:47;97080;;;6.2;57
68628;BME280;55611;48.602;9.490;2023-03-03T00:41:19;97080;;;6.1;57
68628;BME280;55611;48.602;9.490;2023-03-03T00:43:48;97080;;;6.1;57
68628;BME280;55611;48.602;9.490;2023-03-03T00:46:20;97080;;;6.1;57
68628;BME280;55611;48.602;9.490;2023-03-03T00:48:49;97070;;;6.1;57
68628;BME280;55611;48.602;9.490;2023-03-03T00:51:24;97080;;;6;57
68628;BME280;55611;48.602;9.490;2023-03-03T00:53:50;97070;;;6;57
68628;BME280;55611;48.602;9.490;2023-03-03T00:56:21;97070;;;6;57
68628;BME280;55611;48.602;9.490;2023-03-03T00:58:51;97070;;;5.9;57
68628;BME280;55611;48.602;9.490;2023-03-03T01:01:22;97070;;;5.9;57
68628;BME280;55611;48.602;9.490;2023-03-03T01:03:52;97070;;;5.8;56.5
68628;BME280;55611;48.602;9.490;2023-03-03T01:06:23;97060;;;5.8;56.5
68628;BME280;55611;48.602;9.490;2023-03-03T01:08:53;97060;;;5.7;56.5
68628;BME280;55611;48.602;9.490;2023-03-03T01:11:24;97070;;;5.6;56.5
68628;BME280;55611;48.602;9.490;2023-03-03T01:13:55;97070;;;5.6;56.5
68628;BME280;55611;48.602;9.490;2023-03-03T01:16:25;97060;;;5.6;56.5
68628;BME280;55611;48.602;9.490;2023-03-03T01:18:55;97060;;;5.4;56.5
68628;BME280;55611;48.602;9.490;2023-03-03T01:21:26;97060;;;5.4;56.5
68628;BME280;55611;48.602;9.490;2023-03-03T01:23:56;97060;;;5.3;56.5
68628;BME280;55611;48.602;9.490;2023-03-03T01:26:27;97060;;;5.3;56.5
68628;BME280;55611;48.602;9.490;2023-03-03T01:28:57;97060;;;5.2;56.5
68628;BME280;55611;48.602;9.490;2023-03-03T01:31:28;97060;;;5.2;56.5
68628;BME280;55611;48.602;9.490;2023-03-03T01:33:58;97060;;;5.1;56.5
68628;BME280;55611;48.602;9.490;2023-03-03T01:36:29;97060;;;5.1;56.5
68628;BME280;55611;48.602;9.490;2023-03-03T01:38:59;97060;;;5;56.5
68628;BME280;55611;48.602;9.490;2023-03-03T01:41:30;97060;;;4.8;56.5
68628;BME280;55611;48.602;9.490;2023-03-03T01:44:00;97060;;;4.7;56.5
68628;BME280;55611;48.602;9.490;2023-03-03T01:46:34;97060;;;4.6;56.5
68628;BME280;55611;48.602;9.490;2023-03-03T01:49:03;97070;;;4.6;56.5
68628;BME280;55611;48.602;9.490;2023-03-03T01:51:33;97070;;;4.5;56.5
68628;BME280;55611;48.602;9.490;2023-03-03T01:54:04;97070;;;4.4;57
68628;BME280;55611;48.602;9.490;2023-03-03T01:56:33;97060;;;4.4;57
68628;BME280;55611;48.602;9.490;2023-03-03T01:59:06;97060;;;4.4;57
68628;BME280;55611;48.602;9.490;2023-03-03T02:01:34;97060;;;4.4;56.5
68628;BME280;55611;48.602;9.490;2023-03-03T02:04:04;97050;;;4.4;56.5
68628;BME280;55611;48.602;9.490;2023-03-03T02:06:36;97050;;;4.5;57
68628;BME280;55611;48.602;9.490;2023-03-03T02:11:37;97050;;;4.8;57
68628;BME280;55611;48.602;9.490;2023-03-03T02:14:07;97050;;;4.9;57
68628;BME280;55611;48.602;9.490;2023-03-03T02:16:37;97040;;;5.1;57
68628;BME280;55611;48.602;9.490;2023-03-03T02:19:11;97040;;;5.2;57
68628;BME280;55611;48.602;9.490;2023-03-03T02:21:38;97040;;;5.4;57.5
68628;BME280;55611;48.602;9.490;2023-03-03T02:24:13;97040;;;5.4;57.5
68628;BME280;55611;48.602;9.490;2023-03-03T02:26:39;97030;;;5.4;57.5
68628;BME280;55611;48.602;9.490;2023-03-03T02:29:10;97030;;;5.4;57.5
68628;BME280;55611;48.602;9.490;2023-03-03T02:31:40;97020;;;5.4;57.5
68628;BME280;55611;48.602;9.490;2023-03-03T02:34:11;97020;;;5.4;57.5
68628;BME280;55611;48.602;9.490;2023-03-03T02:36:41;97030;;;5.5;57.5
68628;BME280;55611;48.602;9.490;2023-03-03T02:39:15;97020;;;5.5;57.5
68628;BME280;55611;48.602;9.490;2023-03-03T02:41:51;97020;;;5.5;57.5
68628;BME280;55611;48.602;9.490;2023-03-03T02:44:14;97010;;;5.5;57.5
68628;BME280;55611;48.602;9.490;2023-03-03T02:46:44;97010;;;5.6;57.5
68628;BME280;55611;48.602;9.490;2023-03-03T02:49:15;97010;;;5.6;57
68628;BME280;55611;48.602;9.490;2023-03-03T02:51:44;97020;;;5.6;57
68628;BME280;55611;48.602;9.490;2023-03-03T02:54:15;97020;;;5.6;57
68628;BME280;55611;48.602;9.490;2023-03-03T02:56:45;97020;;;5.6;57.5
68628;BME280;55611;48.602;9.490;2023-03-03T02:59:16;97030;;;5.6;57.5
68628;BME280;55611;48.602;9.490;2023-03-03T03:01:46;97020;;;5.5;57.5
68628;BME280;55611;48.602;9.490;2023-03-03T03:04:19;97020;;;5.5;57.5
68628;BME280;55611;48.602;9.490;2023-03-03T03:06:47;97030;;;5.5;58
68628;BME280;55611;48.602;9.490;2023-03-03T03:09:18;97030;;;5.5;58
68628;BME280;55611;48.602;9.490;2023-03-03T03:11:48;97030;;;5.5;57.5
68628;BME280;55611;48.602;9.490;2023-03-03T03:14:20;97030;;;5.5;57.5
68628;BME280;55611;48.602;9.490;2023-03-03T03:16:49;97040;;;5.5;57.5
68628;BME280;55611;48.602;9.490;2023-03-03T03:19:20;97040;;;5.5;57.5
68628;BME280;55611;48.602;9.490;2023-03-03T03:21:50;97040;;;5.4;57.5
68628;BME280;55611;48.602;9.490;2023-03-03T03:24:21;97040;;;5.4;57.5
68628;BME280;55611;48.602;9.490;2023-03-03T03:26:51;97040;;;5.5;57.5
68628;BME280;55611;48.602;9.490;2023-03-03T03:29:22;97040;;;5.5;57.5
68628;BME280;55611;48.602;9.490;2023-03-03T03:31:52;97040;;;5.5;57.5
68628;BME280;55611;48.602;9.490;2023-03-03T03:34:23;97040;;;5.5;57.5
68628;BME280;55611;48.602;9.490;2023-03-03T03:36:54;97040;;;5.5;57.5
68628;BME280;55611;48.602;9.490;2023-03-03T03:39:24;97040;;;5.5;57.5
68628;BME280;55611;48.602;9.490;2023-03-03T03:41:55;97040;;;5.5;57.5
68628;BME280;55611;48.602;9.490;2023-03-03T03:44:25;97040;;;5.5;57.5
68628;BME280;55611;48.602;9.490;2023-03-03T03:46:56;97050;;;5.5;57.5
68628;BME280;55611;48.602;9.490;2023-03-03T03:49:26;97050;;;5.5;57.5
68628;BME280;55611;48.602;9.490;2023-03-03T03:51:57;97050;;;5.6;57.5
68628;BME280;55611;48.602;9.490;2023-03-03T03:54:27;97050;;;5.5;57.5
68628;BME280;55611;48.602;9.490;2023-03-03T03:56:58;97050;;;5.6;57.5
68628;BME280;55611;48.602;9.490;2023-03-03T03:59:28;97050;;;5.6;57.5
68628;BME280;55611;48.602;9.490;2023-03-03T04:01:59;97050;;;5.6;57.5
68628;BME280;55611;48.602;9.490;2023-03-03T04:04:29;97060;;;5.6;57.5
68628;BME280;55611;48.602;9.490;2023-03-03T04:07:00;97060;;;5.6;57.5
68628;BME280;55611;48.602;9.490;2023-03-03T04:09:30;97060;;;5.7;57.5
68628;BME280;55611;48.602;9.490;2023-03-03T04:12:01;97050;;;5.7;57.5
68628;BME280;55611;48.602;9.490;2023-03-03T04:14:31;97050;;;5.7;57.5
68628;BME280;55611;48.602;9.490;2023-03-03T04:17:02;97060;;;5.8;57.5
68628;BME280;55611;48.602;9.490;2023-03-03T04:19:32;97050;;;5.8;57.5
68628;BME280;55611;48.602;9.490;2023-03-03T04:22:03;97050;;;5.8;57.5
68628;BME280;55611;48.602;9.490;2023-03-03T04:24:33;97040;;;5.8;57.5
68628;BME280;55611;48.602;9.490;2023-03-03T04:27:04;97040;;;5.8;57.5
68628;BME280;55611;48.602;9.490;2023-03-03T04:29:34;97050;;;5.9;57.5
68628;BME280;55611;48.602;9.490;2023-03-03T04:32:05;97050;;;5.9;57.5
68628;BME280;55611;48.602;9.490;2023-03-03T04:34:35;97050;;;5.9;57.5
68628;BME280;55611;48.602;9.490;2023-03-03T04:37:06;97050;;;5.9;57.5
68628;BME280;55611;48.602;9.490;2023-03-03T04:39:36;97050;;;6;57.5
68628;BME280;55611;48.602;9.490;2023-03-03T04:42:07;97050;;;6;57.5
68628;BME280;55611;48.602;9.490;2023-03-03T04:44:37;97050;;;5.9;57.5
68628;BME280;55611;48.602;9.490;2023-03-03T04:47:08;97060;;;5.9;57.5
68628;BME280;55611;48.602;9.490;2023-03-03T04:49:38;97060;;;5.9;57.5
68628;BME280;55611;48.602;9.490;2023-03-03T04:52:09;97060;;;5.8;57.5
68628;BME280;55611;48.602;9.490;2023-03-03T04:54:39;97060;;;5.7;57.5
68628;BME280;55611;48.602;9.490;2023-03-03T04:57:10;97070;;;5.6;57.5
68628;BME280;55611;48.602;9.490;2023-03-03T04:59:41;97060;;;5.6;57.5
68628;BME280;55611;48.602;9.490;2023-03-03T05:02:11;97060;;;5.6;57.5
68628;BME280;55611;48.602;9.490;2023-03-03T05:04:42;97070;;;5.6;57.5
68628;BME280;55611;48.602;9.490;2023-03-03T05:07:12;97070;;;5.6;57.5
68628;BME280;55611;48.602;9.490;2023-03-03T05:09:43;97070;;;5.6;57.5
68628;BME280;55611;48.602;9.490;2023-03-03T05:12:13;97070;;;5.6;57.5
68628;BME280;55611;48.602;9.490;2023-03-03T05:14:44;97070;;;5.6;57.5
68628;BME280;55611;48.602;9.490;2023-03-03T05:17:14;97070;;;5.6;57.5
68628;BME280;55611;48.602;9.490;2023-03-03T05:19:45;97080;;;5.5;57.5
68628;BME280;55611;48.602;9.490;2023-03-03T05:22:15;97080;;;5.5;57.5
68628;BME280;55611;48.602;9.490;2023-03-03T05:24:46;97080;;;5.5;57.5
68628;BME280;55611;48.602;9.490;2023-03-03T05:27:16;97080;;;5.5;57.5
68628;BME280;55611;48.602;9.490;2023-03-03T05:29:47;97080;;;5.6;57.5
68628;BME280;55611;48.602;9.490;2023-03-03T05:32:17;97080;;;5.7;57.5
68628;BME280;55611;48.602;9.490;2023-03-03T05:34:48;97080;;;5.7;57.5
68628;BME280;55611;48.602;9.490;2023-03-03T05:37:18;97080;;;5.7;57.5
68628;BME280;55611;48.602;9.490;2023-03-03T05:39:49;97080;;;5.7;57.5
68628;BME280;55611;48.602;9.490;2023-03-03T05:42:19;97080;;;5.7;57.5
68628;BME280;55611;48.602;9.490;2023-03-03T05:47:20;97090;;;5.6;57.5
68628;BME280;55611;48.602;9.490;2023-03-03T05:49:51;97090;;;5.6;57.5
68628;BME280;55611;48.602;9.490;2023-03-03T05:52:21;97090;;;5.5;57.5
68628;BME280;55611;48.602;9.490;2023-03-03T05:54:52;97090;;;5.5;57.5
68628;BME280;55611;48.602;9.490;2023-03-03T05:57:22;97100;;;5.4;57.5
68628;BME280;55611;48.602;9.490;2023-03-03T05:59:53;97100;;;5.4;57.5
68628;BME280;55611;48.602;9.490;2023-03-03T06:02:23;97100;;;5.4;57.5
68628;BME280;55611;48.602;9.490;2023-03-03T06:04:54;97100;;;5.4;57.5
68628;BME280;55611;48.602;9.490;2023-03-03T06:07:24;97110;;;5.3;57.5
68628;BME280;55611;48.602;9.490;2023-03-03T06:09:55;97110;;;5.3;57.5
68628;BME280;55611;48.602;9.490;2023-03-03T06:12:25;97110;;;5.3;57.5
68628;BME280;55611;48.602;9.490;2023-03-03T06:14:56;97110;;;5.3;57.5
68628;BME280;55611;48.602;9.490;2023-03-03T06:17:27;97110;;;5.4;57.5
68628;BME280;55611;48.602;9.490;2023-03-03T06:19:57;97110;;;5.4;57.5
68628;BME280;55611;48.602;9.490;2023-03-03T06:22:27;97120;;;5.5;57.5
68628;BME280;55611;48.602;9.490;2023-03-03T06:24:58;97110;;;5.5;57.5
68628;BME280;55611;48.602;9.490;2023-03-03T06:27:29;97110;;;5.5;57.5
68628;BME280;55611;48.602;9.490;2023-03-03T06:29:59;97120;;;5.6;57.5
68628;BME280;55611;48.602;9.490;2023-03-03T06:32:30;97120;;;5.7;57.5
68628;BME280;55611;48.602;9.490;2023-03-03T06:35:00;97120;;;5.8;57.5
68628;BME280;55611;48.602;9.490;2023-03-03T06:37:31;97120;;;5.8;57.5
68628;BME280;55611;48.602;9.490;2023-03-03T06:40:01;97120;;;5.9;57.5
68628;BME280;55611;48.602;9.490;2023-03-03T06:42:32;97130;;;5.9;57.5
68628;BME280;55611;48.602;9.490;2023-03-03T06:45:02;97130;;;5.9;57.5
68628;BME280;55611;48.602;9.490;2023-03-03T06:47:33;97130;;;5.9;58
68628;BME280;55611;48.602;9.490;2023-03-03T06:50:03;97130;;;5.8;58
68628;BME280;55611;48.602;9.490;2023-03-03T06:52:34;97140;;;5.8;58
68628;BME280;55611;48.602;9.490;2023-03-03T06:55:12;97140;;;5.8;58
68628;BME280;55611;48.602;9.490;2023-03-03T06:57:35;97140;;;5.8;58
68628;BME280;55611;48.602;9.490;2023-03-03T07:00:36;97150;;;5.8;58
68628;BME280;55611;48.602;9.490;2023-03-03T07:02:36;97150;;;5.9;58
68628;BME280;55611;48.602;9.490;2023-03-03T07:05:11;97160;;;5.9;58
68628;BME280;55611;48.602;9.490;2023-03-03T07:07:37;97160;;;5.9;58
68628;BME280;55611;48.602;9.490;2023-03-03T07:10:24;97160;;;5.9;58
68628;BME280;55611;48.602;9.490;2023-03-03T07:12:38;97160;;;5.9;58
68628;BME280;55611;48.602;9.490;2023-03-03T07:15:15;97160;;;6;58
68628;BME280;55611;48.602;9.490;2023-03-03T07:17:41;97170;;;5.9;58
68628;BME280;55611;48.602;9.490;2023-03-03T07:20:14;97160;;;5.9;58
68628;BME280;55611;48.602;9.490;2023-03-03T07:22:40;97170;;;5.9;58
68628;BME280;55611;48.602;9.490;2023-03-03T07:25:18;97170;;;5.9;58
68628;BME280;55611;48.602;9.490;2023-03-03T07:27:41;97170;;;6;58
68628;BME280;55611;48.602;9.490;2023-03-03T07:30:16;97170;;;6.1;58
68628;BME280;55611;48.602;9.490;2023-03-03T07:32:42;97180;;;6.1;58
68628;BME280;55611;48.602;9.490;2023-03-03T07:35:43;97180;;;6.1;58
68628;BME280;55611;48.602;9.490;2023-03-03T07:37:43;97180;;;6.1;58
68628;BME280;55611;48.602;9.490;2023-03-03T07:41:17;97170;;;6.2;58
68628;BME280;55611;48.602;9.490;2023-03-03T07:42:44;97180;;;6.2;58
68628;BME280;55611;48.602;9.490;2023-03-03T07:45:24;97170;;;6.3;58
68628;BME280;55611;48.602;9.490;2023-03-03T07:47:45;97180;;;6.4;58
68628;BME280;55611;48.602;9.490;2023-03-03T07:50:18;97180;;;6.4;58
68628;BME280;55611;48.602;9.490;2023-03-03T07:55:29;97180;;;6.5;58
68628;BME280;55611;48.602;9.490;2023-03-03T07:57:47;97180;;;6.5;58
68628;BME280;55611;48.602;9.490;2023-03-03T08:02:57;97180;;;6.6;58
68628;BME280;55611;48.602;9.490;2023-03-03T08:05:24;97180;;;6.7;58
68628;BME280;55611;48.602;9.490;2023-03-03T08:07:49;97180;;;6.7;58
68628;BME280;55611;48.602;9.490;2023-03-03T08:12:50;97180;;;6.8;58
68628;BME280;55611;48.602;9.490;2023-03-03T08:15:23;97180;;;6.9;58
68628;BME280;55611;48.602;9.490;2023-03-03T08:17:52;97180;;;6.8;58
68628;BME280;55611;48.602;9.490;2023-03-03T08:20:31;97180;;;6.9;58
68628;BME280;55611;48.602;9.490;2023-03-03T08:22:52;97180;;;7;58
68628;BME280;55611;48.602;9.490;2023-03-03T08:25:23;97180;;;7.1;58
68628;BME280;55611;48.602;9.490;2023-03-03T08:27:53;97180;;;7.2;58
68628;BME280;55611;48.602;9.490;2023-03-03T08:30:24;97180;;;7.3;58
68628;BME280;55611;48.602;9.490;2023-03-03T08:32:54;97180;;;7.4;58
68628;BME280;55611;48.602;9.490;2023-03-03T08:35:25;97180;;;7.5;58
68628;BME280;55611;48.602;9.490;2023-03-03T08:37:55;97180;;;7.5;58
68628;BME280;55611;48.602;9.490;2023-03-03T08:40:26;97180;;;7.5;58
68628;BME280;55611;48.602;9.490;2023-03-03T08:42:56;97180;;;7.5;58
68628;BME280;55611;48.602;9.490;2023-03-03T08:45:27;97170;;;7.5;58
68628;BME280;55611;48.602;9.490;2023-03-03T08:47:57;97180;;;7.5;58
68628;BME280;55611;48.602;9.490;2023-03-03T08:50:28;97180;;;7.5;58
68628;BME280;55611;48.602;9.490;2023-03-03T08:52:58;97180;;;7.5;58
68628;BME280;55611;48.602;9.490;2023-03-03T08:55:29;97180;;;7.6;58
68628;BME280;55611;48.602;9.490;2023-03-03T08:58:00;97190;;;7.6;58
68628;BME280;55611;48.602;9.490;2023-03-03T09:00:30;97190;;;7.6;58
68628;BME280;55611;48.602;9.490;2023-03-03T09:03:01;97190;;;7.6;58
68628;BME280;55611;48.602;9.490;2023-03-03T09:05:31;97190;;;7.5;58
68628;BME280;55611;48.602;9.490;2023-03-03T09:08:01;97190;;;7.5;58
68628;BME280;55611;48.602;9.490;2023-03-03T09:10:32;97200;;;7.6;58
68628;BME280;55611;48.602;9.490;2023-03-03T09:13:09;97200;;;7.6;58.5
68628;BME280;55611;48.602;9.490;2023-03-03T09:15:35;97210;;;7.7;58
68628;BME280;55611;48.602;9.490;2023-03-03T09:18:10;97210;;;7.6;58
68628;BME280;55611;48.602;9.490;2023-03-03T09:20:36;97220;;;7.7;58
68628;BME280;55611;48.602;9.490;2023-03-03T09:23:37;97230;;;7.8;58
68628;BME280;55611;48.602;9.490;2023-03-03T09:25:35;97220;;;7.8;58
68628;BME280;55611;48.602;9.490;2023-03-03T09:28:10;97230;;;7.9;58
68628;BME280;55611;48.602;9.490;2023-03-03T09:30:37;97230;;;8.1;58
68628;BME280;55611;48.602;9.490;2023-03-03T09:33:16;97230;;;8.1;58
68628;BME280;55611;48.602;9.490;2023-03-03T09:35:37;97220;;;8.2;58
68628;BME280;55611;48.602;9.490;2023-03-03T09:40:45;97220;;;8.4;58
68628;BME280;55611;48.602;9.490;2023-03-03T09:43:13;97220;;;8.4;58
68628;BME280;55611;48.602;9.490;2023-03-03T09:45:42;97230;;;8.5;58
68628;BME280;55611;48.602;9.490;2023-03-03T09:48:17;97240;;;8.5;58
68628;BME280;55611;48.602;9.490;2023-03-03T09:50:43;97230;;;8.6;58
68628;BME280;55611;48.602;9.490;2023-03-03T09:55:44;97230;;;8.7;58
68628;BME280;55611;48.602;9.490;2023-03-03T10:00:49;97230;;;8.7;58
68628;BME280;55611;48.602;9.490;2023-03-03T10:03:25;97230;;;8.7;58
68628;BME280;55611;48.602;9.490;2023-03-03T10:05:46;97230;;;8.7;57.5
68628;BME280;55611;48.602;9.490;2023-03-03T10:08:49;97230;;;8.6;57.5
68628;BME280;55611;48.602;9.490;2023-03-03T10:13:19;97220;;;8.5;57.5
68628;BME280;55611;48.602;9.490;2023-03-03T10:15:50;97230;;;8.6;57.5
68628;BME280;55611;48.602;9.490;2023-03-03T10:18:20;97220;;;8.8;57.5
68628;BME280;55611;48.602;9.490;2023-03-03T10:21:50;97230;;;8.8;57.5
68628;BME280;55611;48.602;9.490;2023-03-03T10:23:22;97220;;;8.8;57.5
68628;BME280;55611;48.602;9.490;2023-03-03T10:25:52;97220;;;8.8;58
68628;BME280;55611;48.602;9.490;2023-03-03T10:28:21;97220;;;9;58
68628;BME280;55611;48.602;9.490;2023-03-03T10:31:09;97220;;;9.1;58
68628;BME280;55611;48.602;9.490;2023-03-03T10:33:29;97220;;;9.2;58
68628;BME280;55611;48.602;9.490;2023-03-03T10:35:55;97210;;;9.2;58
68628;BME280;55611;48.602;9.490;2023-03-03T10:38:25;97220;;;9.2;57.5
68628;BME280;55611;48.602;9.490;2023-03-03T10:40:56;97220;;;9.3;58
68628;BME280;55611;48.602;9.490;2023-03-03T10:43:24;97220;;;9.5;58
68628;BME280;55611;48.602;9.490;2023-03-03T10:46:25;97220;;;9.7;58
68628;BME280;55611;48.602;9.490;2023-03-03T10:48:29;97220;;;9.9;58
68628;BME280;55611;48.602;9.490;2023-03-03T10:50:55;97220;;;9.9;58
68628;BME280;55611;48.602;9.490;2023-03-03T10:53:26;97220;;;9.7;58
68628;BME280;55611;48.602;9.490;2023-03-03T10:57:00;97220;;;9.6;57.5
68628;BME280;55611;48.602;9.490;2023-03-03T10:58:27;97220;;;9.5;57.5
68628;BME280;55611;48.602;9.490;2023-03-03T11:00:58;97220;;;9.3;57.5
68628;BME280;55611;48.602;9.490;2023-03-03T11:03:37;97220;;;9.2;57
68628;BME280;55611;48.602;9.490;2023-03-03T11:05:57;97220;;;9.2;57
68628;BME280;55611;48.602;9.490;2023-03-03T11:08:29;97220;;;9.1;57
68628;BME280;55611;48.602;9.490;2023-03-03T11:10:59;97220;;;9.1;57.5
68628;BME280;55611;48.602;9.490;2023-03-03T11:13:32;97220;;;9.3;57.5
68628;BME280;55611;48.602;9.490;2023-03-03T11:16:05;97220;;;9.6;57.5
68628;BME280;55611;48.602;9.490;2023-03-03T11:18:47;97210;;;9.7;57.5
68628;BME280;55611;48.602;9.490;2023-03-03T11:21:02;97220;;;9.9;57.5
68628;BME280;55611;48.602;9.490;2023-03-03T11:23:38;97220;;;9.8;57.5
68628;BME280;55611;48.602;9.490;2023-03-03T11:26:08;97220;;;9.7;57.5
68628;BME280;55611;48.602;9.490;2023-03-03T11:31:05;97220;;;10.1;57.5
68628;BME280;55611;48.602;9.490;2023-03-03T11:33:34;97230;;;10.1;57.5
68628;BME280;55611;48.602;9.490;2023-03-03T11:36:20;97230;;;10.1;57.5
68628;BME280;55611;48.602;9.490;2023-03-03T11:38:38;97230;;;10.3;57.5
68628;BME280;55611;48.602;9.490;2023-03-03T11:41:05;97220;;;10.4;57.5
68628;BME280;55611;48.602;9.490;2023-03-03T11:43:37;97220;;;10.4;57.5
68628;BME280;55611;48.602;9.490;2023-03-03T11:46:06;97220;;;10.5;57.5
68628;BME280;55611;48.602;9.490;2023-03-03T11:48:37;97210;;;10.7;57.5
68628;BME280;55611;48.602;9.490;2023-03-03T11:51:07;97210;;;10.7;57.5
68628;BME280;55611;48.602;9.490;2023-03-03T11:53:39;97210;;;10.9;57.5
68628;BME280;55611;48.602;9.490;2023-03-03T11:56:14;97210;;;10.9;57.5
68628;BME280;55611;48.602;9.490;2023-03-03T11:58:39;97210;;;10.9;57.5
68628;BME280;55611;48.602;9.490;2023-03-03T12:01:13;97200;;;10.8;57.5
68628;BME280;55611;48.602;9.490;2023-03-03T12:03:43;97200;;;10.8;57.5
68628;BME280;55611;48.602;9.490;2023-03-03T12:06:11;97200;;;10.8;57
68628;BME280;55611;48.602;9.490;2023-03-03T12:08:43;97190;;;11;57
68628;BME280;55611;48.602;9.490;2023-03-03T12:11:12;97190;;;11;57
68628;BME280;55611;48.602;9.490;2023-03-03T12:13:47;97190;;;10.9;57
68628;BME280;55611;48.602;9.490;2023-03-03T12:16:11;97190;;;11;57
68628;BME280;55611;48.602;9.490;2023-03-03T12:18:44;97190;;;11;57
68628;BME280;55611;48.602;9.490;2023-03-03T12:21:14;97190;;;11.2;57
68628;BME280;55611;48.602;9.490;2023-03-03T12:26:15;97190;;;11.2;57
68628;BME280;55611;48.602;9.490;2023-03-03T12:28:46;97190;;;11.2;57
68628;BME280;55611;48.602;9.490;2023-03-03T12:33:50;97180;;;11.3;57
68628;BME280;55611;48.602;9.490;2023-03-03T12:38:48;97180;;;11.5;57
68628;BME280;55611;48.602;9.490;2023-03-03T12:41:21;97180;;;11.4;57
68628;BME280;55611;48.602;9.490;2023-03-03T12:43:50;97170;;;11.4;57
68628;BME280;55611;48.602;9.490;2023-03-03T12:46:22;97170;;;11.5;57
68628;BME280;55611;48.602;9.490;2023-03-03T12:48:47;97170;;;11.6;57
68628;BME280;55611;48.602;9.490;2023-03-03T12:51:21;97170;;;11.7;57
68628;BME280;55611;48.602;9.490;2023-03-03T12:56:52;97170;;;11.6;57
68628;BME280;55611;48.602;9.490;2023-03-03T12:58:55;97170;;;11.6;57
68628;BME280;55611;48.602;9.490;2023-03-03T13:01:27;97170;;;11.7;57
68628;BME280;55611;48.602;9.490;2023-03-03T13:06:24;97160;;;12;57
68628;BME280;55611;48.602;9.490;2023-03-03T13:08:54;97160;;;12;57
68628;BME280;55611;48.602;9.490;2023-03-03T13:11:26;97160;;;12;57
68628;BME280;55611;48.602;9.490;2023-03-03T13:13:53;97170;;;11.9;57
68628;BME280;55611;48.602;9.490;2023-03-03T13:16:26;97160;;;11.8;57
68628;BME280;55611;48.602;9.490;2023-03-03T13:18:55;97170;;;11.7;57
68628;BME280;55611;48.602;9.490;2023-03-03T13:21:30;97170;;;11.7;57
68628;BME280;55611;48.602;9.490;2023-03-03T13:24:27;97160;;;11.8;57
68628;BME280;55611;48.602;9.490;2023-03-03T13:26:26;97160;;;11.7;57
68628;BME280;55611;48.602;9.490;2023-03-03T13:29:13;97160;;;11.8;57
68628;BME280;55611;48.602;9.490;2023-03-03T13:31:28;97160;;;11.8;57
68628;BME280;55611;48.602;9.490;2023-03-03T13:33:57;97160;;;11.9;56.5
68628;BME280;55611;48.602;9.490;2023-03-03T13:36:29;97160;;;11.9;56.5
68628;BME280;55611;48.602;9.490;2023-03-03T13:38:59;97150;;;12;56.5
68628;BME280;55611;48.602;9.490;2023-03-03T13:41:29;97160;;;12;56.5
68628;BME280;55611;48.602;9.490;2023-03-03T13:44:30;97150;;;12.1;56.5
68628;BME280;55611;48.602;9.490;2023-03-03T13:46:39;97150;;;12.1;56.5
68628;BME280;55611;48.602;9.490;2023-03-03T13:49:18;97150;;;12.1;56.5
68628;BME280;55611;48.602;9.490;2023-03-03T13:51:31;97150;;;12;56.5
68628;BME280;55611;48.602;9.490;2023-03-03T13:54:05;97150;;;12;56.5
68628;BME280;55611;48.602;9.490;2023-03-03T13:56:34;97150;;;12;56.5
68628;BME280;55611;48.602;9.490;2023-03-03T13:59:06;97150;;;12;56
68628;BME280;55611;48.602;9.490;2023-03-03T14:01:40;97150;;;12.1;56
68628;BME280;55611;48.602;9.490;2023-03-03T14:04:13;97140;;;12;56
68628;BME280;55611;48.602;9.490;2023-03-03T14:06:33;97140;;;12;56
68628;BME280;55611;48.602;9.490;2023-03-03T14:09:08;97140;;;11.9;56
68628;BME280;55611;48.602;9.490;2023-03-03T14:11:37;97140;;;11.9;56
68628;BME280;55611;48.602;9.490;2023-03-03T14:14:09;97130;;;11.9;56
68628;BME280;55611;48.602;9.490;2023-03-03T14:16:38;97130;;;11.8;56
68628;BME280;55611;48.602;9.490;2023-03-03T14:21:38;97120;;;11.8;56
68628;BME280;55611;48.602;9.490;2023-03-03T14:24:10;97130;;;11.7;56
68628;BME280;55611;48.602;9.490;2023-03-03T14:26:44;97120;;;11.7;56
68628;BME280;55611;48.602;9.490;2023-03-03T14:29:14;97120;;;11.8;56
68628;BME280;55611;48.602;9.490;2023-03-03T14:31:39;97120;;;11.8;56
68628;BME280;55611;48.602;9.490;2023-03-03T14:34:14;97120;;;11.7;56
68628;BME280;55611;48.602;9.490;2023-03-03T14:36:40;97120;;;11.7;56
68628;BME280;55611;48.602;9.490;2023-03-03T14:39:25;97120;;;11.7;56
68628;BME280;55611;48.602;9.490;2023-03-03T14:41:40;97120;;;11.7;56
68628;BME280;55611;48.602;9.490;2023-03-03T14:46:42;97130;;;11.6;56
68628;BME280;55611;48.602;9.490;2023-03-03T14:49:14;97120;;;11.7;56
68628;BME280;55611;48.602;9.490;2023-03-03T14:51:46;97120;;;11.8;56
68628;BME280;55611;48.602;9.490;2023-03-03T14:54:29;97120;;;11.8;56
68628;BME280;55611;48.602;9.490;2023-03-03T14:57:00;97120;;;11.8;56
68628;BME280;55611;48.602;9.490;2023-03-03T14:59:16;97120;;;11.7;56
68628;BME280;55611;48.602;9.490;2023-03-03T15:01:44;97120;;;11.7;56
68628;BME280;55611;48.602;9.490;2023-03-03T15:04:23;97120;;;11.8;56
68628;BME280;55611;48.602;9.490;2023-03-03T15:06:46;97120;;;11.8;56
68628;BME280;55611;48.602;9.490;2023-03-03T15:09:32;97120;;;11.8;55.5
68628;BME280;55611;48.602;9.490;2023-03-03T15:11:49;97120;;;11.7;55.5
68628;BME280;55611;48.602;9.490;2023-03-03T15:14:18;97120;;;11.7;55.5
68628;BME280;55611;48.602;9.490;2023-03-03T15:16:47;97120;;;11.7;55.5
68628;BME280;55611;48.602;9.490;2023-03-03T15:19:23;97110;;;11.7;55.5